Time;durP1;ratioP1;P1;durP2;ratioP2;P2;SDS_P1;SDS_P2;PMS_P1;PMS_P2;Temp;Humidity;BMP_temperature;BMP_pressure;BME280_temperature;BME280_humidity;BME280_pressure;Samples;Min_cycle;Max_cycle;Signal;HPM_P1;HPM_P2
2022/01/25 00:24:21;;;;;;;68.72;38.42;;;4.10;99.90;;;;;;5091919;28;20851;-77
2022/01/25 00:27:02;;;;;;;65.28;39.80;;;4.10;99.90;;;;;;5103821;28;20047;-78
2022/01/25 00:29:36;;;;;;;65.47;43.10;;;4.10;99.90;;;;;;5073734;28;20032;-78
2022/01/25 00:32:03;;;;;;;64.97;41.20;;;4.20;99.90;;;;;;5074678;28;20044;-79
2022/01/25 00:34:28;;;;;;;67.53;40.85;;;4.20;99.90;;;;;;5072231;28;20047;-79
2022/01/25 00:36:54;;;;;;;64.85;41.58;;;4.10;99.90;;;;;;5089398;28;20040;-78
2022/01/25 00:39:19;;;;;;;61.67;41.10;;;4.10;99.90;;;;;;5091524;28;20529;-78
2022/01/25 00:41:45;;;;;;;60.42;39.17;;;4.20;99.90;;;;;;5099691;28;20058;-78
2022/01/25 00:44:12;;;;;;;61.67;40.58;;;4.10;99.90;;;;;;5078100;28;20119;-78
2022/01/25 00:46:38;;;;;;;65.85;41.08;;;4.10;99.90;;;;;;5089875;28;20064;-75
2022/01/25 00:49:04;;;;;;;65.43;43.55;;;4.10;99.90;;;;;;5104566;28;20043;-77
2022/01/25 00:54:13;;;;;;;66.55;41.05;;;4.10;99.90;;;;;;5091015;28;20044;-77
2022/01/25 00:56:44;;;;;;;66.47;43.80;;;4.10;99.90;;;;;;5079775;28;20771;-77
2022/01/25 00:59:15;;;;;;;70.20;43.40;;;4.00;99.90;;;;;;5102214;28;20043;-76
2022/01/25 01:01:42;;;;;;;63.13;41.15;;;4.10;99.90;;;;;;5072142;28;20610;-77
2022/01/25 01:04:08;;;;;;;64.38;42.42;;;4.10;99.90;;;;;;5097801;28;20143;-77
2022/01/25 01:06:35;;;;;;;64.35;41.88;;;4.00;99.90;;;;;;5086977;28;20568;-78
2022/01/25 01:09:00;;;;;;;70.07;43.10;;;4.00;99.90;;;;;;5075695;28;20067;-76
2022/01/25 01:11:39;;;;;;;69.13;44.22;;;4.10;99.90;;;;;;5103610;28;20035;-77
2022/01/25 01:14:40;;;;;;;59.92;37.88;;;4.00;99.90;;;;;;5105699;28;20051;-78
2022/01/25 01:17:12;;;;;;;64.25;40.53;;;4.00;99.90;;;;;;5105922;28;20055;-78
2022/01/25 01:33:41;;;;;;;67.20;42.08;;;4.00;99.90;;;;;;5109697;28;20073;-77
2022/01/25 01:36:35;;;;;;;62.15;41.13;;;4.00;99.90;;;;;;5089822;28;20060;-77
2022/01/25 01:39:20;;;;;;;67.55;42.60;;;3.90;99.90;;;;;;5083668;28;20047;-77
2022/01/25 01:44:21;;;;;;;68.80;42.75;;;4.00;99.90;;;;;;5081626;28;20047;-77
2022/01/25 01:47:06;;;;;;;60.05;39.38;;;4.00;99.90;;;;;;5080085;28;20047;-76
2022/01/25 01:49:40;;;;;;;65.50;40.05;;;4.00;99.90;;;;;;5112735;28;20142;-77
2022/01/25 01:52:06;;;;;;;68.07;42.67;;;3.90;99.90;;;;;;5074903;28;20058;-77
2022/01/25 01:54:32;;;;;;;63.53;41.25;;;4.00;99.90;;;;;;5079228;28;20067;-76
2022/01/25 01:56:58;;;;;;;65.05;41.80;;;4.00;99.90;;;;;;5108007;28;20040;-81
2022/01/25 01:59:23;;;;;;;67.13;41.50;;;4.10;99.90;;;;;;5112915;28;20040;-79
2022/01/25 02:01:49;;;;;;;63.70;40.38;;;4.00;99.90;;;;;;5105913;28;20079;-78
2022/01/25 02:04:17;;;;;;;64.88;39.50;;;4.00;99.90;;;;;;5105213;28;20373;-78
2022/01/25 02:06:43;;;;;;;67.68;41.72;;;4.00;99.90;;;;;;5108019;28;20135;-72
2022/01/25 02:09:10;;;;;;;67.43;42.63;;;4.00;99.90;;;;;;5093213;28;20127;-80
2022/01/25 02:11:36;;;;;;;66.88;42.58;;;4.00;99.90;;;;;;5107839;28;20050;-77
2022/01/25 02:14:06;;;;;;;67.28;43.25;;;3.90;99.90;;;;;;5098601;28;20067;-75
2022/01/25 02:24:40;;;;;;;68.60;43.28;;;3.90;99.90;;;;;;5083498;28;20044;-78
2022/01/25 02:27:06;;;;;;;62.88;40.08;;;4.00;99.90;;;;;;5101348;28;20044;-77
2022/01/25 02:29:32;;;;;;;63.72;41.67;;;4.00;99.90;;;;;;5093554;28;20047;-78
2022/01/25 02:31:58;;;;;;;66.22;43.83;;;4.00;99.90;;;;;;5093566;28;20043;-80
2022/01/25 02:34:24;;;;;;;71.05;46.80;;;4.00;99.90;;;;;;5109341;28;20071;-79
2022/01/25 02:37:05;;;;;;;69.75;43.22;;;3.90;99.90;;;;;;5102909;28;20040;-79
2022/01/25 02:39:32;;;;;;;70.72;45.72;;;4.00;99.90;;;;;;5097796;28;20112;-76
2022/01/25 02:41:57;;;;;;;65.70;43.42;;;4.00;99.90;;;;;;5097935;28;20067;-78
2022/01/25 02:44:26;;;;;;;67.47;43.03;;;4.00;99.90;;;;;;5106193;28;20112;-77
2022/01/25 02:49:19;;;;;;;67.97;43.13;;;4.00;99.90;;;;;;5092312;28;20044;-78
2022/01/25 02:51:49;;;;;;;70.65;45.22;;;4.00;99.90;;;;;;5102678;28;20051;-78
2022/01/25 02:54:16;;;;;;;66.90;40.83;;;3.90;99.90;;;;;;5109383;28;20812;-78
2022/01/25 02:56:44;;;;;;;73.80;46.50;;;4.00;99.90;;;;;;5111539;28;20052;-78
2022/01/25 02:59:12;;;;;;;64.90;41.63;;;4.00;99.90;;;;;;5108264;28;20157;-78
2022/01/25 03:01:38;;;;;;;67.15;41.67;;;4.00;99.90;;;;;;5090237;28;20059;-77
2022/01/25 03:04:06;;;;;;;64.15;42.72;;;4.00;99.90;;;;;;5100977;28;20082;-77
2022/01/25 03:06:32;;;;;;;70.47;44.10;;;4.10;99.90;;;;;;5089567;28;20513;-76
2022/01/25 03:08:57;;;;;;;67.50;44.80;;;3.90;99.90;;;;;;5091309;28;20543;-78
2022/01/25 03:11:24;;;;;;;63.50;41.65;;;4.00;99.90;;;;;;5100566;28;20036;-77
2022/01/25 03:13:54;;;;;;;69.72;44.25;;;4.00;99.90;;;;;;5090053;28;20048;-78
2022/01/25 03:18:58;;;;;;;67.72;44.95;;;4.00;99.90;;;;;;5109228;28;20060;-77
2022/01/25 03:23:53;;;;;;;71.47;45.78;;;4.00;99.90;;;;;;5093717;28;20099;-77
2022/01/25 03:26:20;;;;;;;67.68;44.70;;;3.90;99.90;;;;;;5080881;28;20141;-77
2022/01/25 03:28:45;;;;;;;63.50;43.67;;;4.00;99.90;;;;;;5092318;28;20036;-76
2022/01/25 03:31:12;;;;;;;60.50;40.75;;;3.90;99.90;;;;;;5106021;28;20451;-77
2022/01/25 03:33:38;;;;;;;68.38;43.45;;;4.00;99.90;;;;;;5072273;28;20517;-77
2022/01/25 03:36:07;;;;;;;64.57;43.60;;;4.00;99.90;;;;;;5088242;28;20501;-76
2022/01/25 03:38:37;;;;;;;68.78;43.65;;;3.90;99.90;;;;;;5102931;28;20478;-76
2022/01/25 03:41:10;;;;;;;84.53;43.47;;;3.90;99.90;;;;;;5106331;28;20047;-77
2022/01/25 03:43:37;;;;;;;62.88;41.35;;;3.90;99.90;;;;;;5089428;28;20098;-77
2022/01/25 03:51:00;;;;;;;66.45;42.97;;;3.90;99.90;;;;;;5109003;28;20048;-77
2022/01/25 03:53:26;;;;;;;58.20;38.70;;;3.90;99.90;;;;;;5109909;28;20058;-77
2022/01/25 03:55:52;;;;;;;64.07;41.47;;;3.90;99.90;;;;;;5107033;28;20040;-77
2022/01/25 03:58:19;;;;;;;60.00;39.15;;;3.90;99.90;;;;;;5091996;28;20081;-75
2022/01/25 04:00:45;;;;;;;64.93;42.15;;;3.90;99.90;;;;;;5106026;28;20054;-78
2022/01/25 04:03:26;;;;;;;66.63;43.03;;;3.80;99.90;;;;;;5106930;28;20035;-77
2022/01/25 04:05:53;;;;;;;67.43;42.88;;;3.90;99.90;;;;;;5086711;28;20556;-77
2022/01/25 04:08:19;;;;;;;66.53;41.17;;;3.90;99.90;;;;;;5089377;28;20093;-78
2022/01/25 04:10:46;;;;;;;66.75;42.95;;;3.90;99.90;;;;;;5096426;28;20040;-78
2022/01/25 04:13:12;;;;;;;68.15;42.55;;;3.90;99.90;;;;;;5101896;28;20039;-77
2022/01/25 04:15:41;;;;;;;63.92;41.38;;;4.00;99.90;;;;;;5092365;28;20047;-76
2022/01/25 04:20:39;;;;;;;63.92;41.22;;;3.90;99.90;;;;;;5089156;28;20047;-77
2022/01/25 04:25:49;;;;;;;70.10;45.00;;;3.90;99.90;;;;;;5108542;28;20048;-78
2022/01/25 04:28:15;;;;;;;67.65;42.00;;;3.90;99.90;;;;;;5107044;28;20506;-78
2022/01/25 04:30:40;;;;;;;66.72;41.50;;;3.90;99.90;;;;;;5104025;28;20035;-78
2022/01/25 04:33:17;;;;;;;67.25;41.97;;;3.90;99.90;;;;;;5108362;28;20044;-77
2022/01/25 04:49:29;;;;;;;66.88;42.40;;;3.90;99.90;;;;;;5106190;28;20039;-78
2022/01/25 04:52:04;;;;;;;73.22;45.97;;;3.90;99.90;;;;;;5106934;28;20123;-77
2022/01/25 04:54:42;;;;;;;63.63;40.08;;;3.90;99.90;;;;;;5091492;28;20056;-76
2022/01/25 05:02:30;;;;;;;63.42;43.15;;;3.90;99.90;;;;;;5093416;28;20051;-78
2022/01/25 05:05:03;;;;;;;65.05;41.80;;;3.80;99.90;;;;;;5098923;28;20375;-77
2022/01/25 05:07:43;;;;;;;64.82;41.10;;;3.90;99.90;;;;;;5109977;28;20044;-81
2022/01/25 05:10:09;;;;;;;;;;;3.90;99.90;;;;;;5104940;28;20032;-77
2022/01/25 05:12:42;;;;;;;70.00;44.50;;;3.90;99.90;;;;;;5077725;28;20358;-78
2022/01/25 05:18:12;;;;;;;67.13;45.05;;;3.90;99.90;;;;;;5094899;28;20051;-78
2022/01/25 05:23:22;;;;;;;66.07;41.60;;;3.90;99.90;;;;;;5084066;28;20040;-77
2022/01/25 05:25:47;;;;;;;70.60;41.38;;;3.90;99.90;;;;;;5075948;28;20040;-77
2022/01/25 05:28:13;;;;;;;65.57;42.08;;;3.80;99.90;;;;;;5095500;28;20044;-78
2022/01/25 05:30:39;;;;;;;70.45;43.88;;;3.80;99.90;;;;;;5097746;28;20047;-82
2022/01/25 05:33:04;;;;;;;65.70;43.38;;;3.80;99.90;;;;;;5098801;28;20032;-79
2022/01/25 05:35:30;;;;;;;65.43;42.80;;;3.80;99.90;;;;;;5096617;28;20039;-78
2022/01/25 05:37:56;;;;;;;84.00;44.58;;;3.80;99.90;;;;;;5115179;28;20043;-78
2022/01/25 05:40:39;;;;;;;71.20;43.92;;;3.80;99.90;;;;;;5090379;28;20047;-78
2022/01/25 05:48:26;;;;;;;69.35;42.95;;;3.80;99.90;;;;;;5095086;28;20051;-79
2022/01/25 05:50:52;;;;;;;71.88;42.13;;;3.90;99.90;;;;;;5077641;28;20051;-80
2022/01/25 05:53:19;;;;;;;71.93;44.67;;;3.90;99.90;;;;;;5076597;28;20040;-79
2022/01/25 05:55:46;;;;;;;69.38;44.67;;;3.80;99.90;;;;;;5113816;28;20138;-78
2022/01/25 05:58:12;;;;;;;64.30;42.88;;;3.90;99.90;;;;;;5113612;28;20123;-80
2022/01/25 06:00:38;;;;;;;73.65;45.63;;;3.90;99.90;;;;;;5111988;28;20441;-79
2022/01/25 06:03:05;;;;;;;74.97;44.72;;;3.80;99.90;;;;;;5115136;28;20040;-81
2022/01/25 06:05:32;;;;;;;75.28;45.33;;;3.80;99.90;;;;;;5081008;28;20509;-80
2022/01/25 06:07:58;;;;;;;67.25;43.00;;;3.80;99.90;;;;;;5094635;28;20094;-78
2022/01/25 06:10:23;;;;;;;89.38;46.13;;;3.90;99.90;;;;;;5096549;28;20494;-76
2022/01/25 06:12:49;;;;;;;70.53;44.63;;;3.90;99.90;;;;;;5075892;28;20406;-77
2022/01/25 06:15:15;;;;;;;71.00;45.17;;;3.90;99.90;;;;;;5094942;28;20264;-78
2022/01/25 06:17:40;;;;;;;68.55;43.53;;;3.80;99.90;;;;;;5096328;28;20134;-77
2022/01/25 06:20:07;;;;;;;71.72;44.38;;;3.90;99.90;;;;;;5102273;28;20088;-79
2022/01/25 06:22:33;;;;;;;65.20;44.20;;;3.80;99.90;;;;;;5105758;28;20047;-78
2022/01/25 06:24:59;;;;;;;70.53;43.90;;;3.90;99.90;;;;;;5077613;28;20047;-77
2022/01/25 06:27:25;;;;;;;74.68;45.53;;;3.80;99.90;;;;;;5078301;28;20476;-78
2022/01/25 06:29:51;;;;;;;66.95;41.45;;;3.80;99.90;;;;;;5106498;28;20063;-78
2022/01/25 06:32:19;;;;;;;69.63;43.83;;;3.70;99.90;;;;;;5111968;28;20044;-77
2022/01/25 06:34:44;;;;;;;72.53;45.15;;;3.80;99.90;;;;;;5110701;28;20040;-78
2022/01/25 06:37:12;;;;;;;72.15;46.65;;;3.90;99.90;;;;;;5086863;28;20112;-77
2022/01/25 06:39:38;;;;;;;70.90;45.72;;;3.80;99.90;;;;;;5075654;28;20105;-79
2022/01/25 06:42:05;;;;;;;69.13;43.22;;;3.80;99.90;;;;;;5090925;28;20136;-79
2022/01/25 06:44:33;;;;;;;71.05;45.13;;;3.80;99.90;;;;;;5091761;28;20122;-78
2022/01/25 06:46:59;;;;;;;76.88;46.20;;;3.70;99.90;;;;;;5102673;28;20059;-78
2022/01/25 06:49:25;;;;;;;70.25;45.08;;;3.80;99.90;;;;;;5091537;28;20579;-78
2022/01/25 06:51:50;;;;;;;72.53;49.25;;;3.70;99.90;;;;;;5110464;28;20122;-79
2022/01/25 06:54:16;;;;;;;68.03;41.53;;;3.80;99.90;;;;;;5109637;28;20845;-79
2022/01/25 06:56:42;;;;;;;74.35;48.10;;;3.80;99.90;;;;;;5091386;28;20188;-78
2022/01/25 06:59:08;;;;;;;65.10;43.72;;;3.80;99.90;;;;;;5095103;28;20043;-79
2022/01/25 07:01:34;;;;;;;71.82;43.95;;;3.80;99.90;;;;;;5105459;28;20055;-77
2022/01/25 07:03:59;;;;;;;76.43;45.50;;;3.80;99.90;;;;;;5090145;28;20033;-79
2022/01/25 07:06:25;;;;;;;74.20;45.92;;;3.80;99.90;;;;;;5090053;28;20075;-79
2022/01/25 07:08:51;;;;;;;74.22;48.05;;;3.70;99.90;;;;;;5103114;28;20044;-78
2022/01/25 07:11:17;;;;;;;73.40;46.90;;;3.80;99.90;;;;;;5092747;28;20048;-79
2022/01/25 07:13:42;;;;;;;70.95;44.47;;;3.80;99.90;;;;;;5093755;28;20039;-72
2022/01/25 07:16:08;;;;;;;74.10;47.20;;;3.70;99.90;;;;;;5070844;28;20051;-79
2022/01/25 07:18:34;;;;;;;76.45;45.97;;;3.80;99.90;;;;;;5083523;27;20400;-80
2022/01/25 07:21:00;;;;;;;70.75;45.78;;;3.80;99.90;;;;;;5132384;27;20535;-80
2022/01/25 07:23:25;;;;;;;68.65;44.15;;;3.70;99.90;;;;;;5074388;28;20040;-78
2022/01/25 07:25:51;;;;;;;74.57;45.72;;;3.70;99.90;;;;;;5089643;28;20048;-82
2022/01/25 07:28:17;;;;;;;73.22;46.33;;;3.70;99.90;;;;;;5062525;28;20053;-81
2022/01/25 07:30:43;;;;;;;70.55;43.78;;;3.80;99.90;;;;;;5083232;28;20098;-80
2022/01/25 07:33:09;;;;;;;71.85;44.92;;;3.70;99.90;;;;;;5089997;28;20443;-81
2022/01/25 07:35:35;;;;;;;68.10;42.35;;;3.70;99.90;;;;;;5084139;28;20127;-83
2022/01/25 07:38:02;;;;;;;75.45;47.92;;;3.70;99.90;;;;;;5089701;28;20051;-81
2022/01/25 07:40:28;;;;;;;70.32;44.10;;;3.70;99.90;;;;;;5074742;28;20055;-81
2022/01/25 07:42:54;;;;;;;77.88;46.95;;;3.70;99.90;;;;;;5088955;28;20418;-79
2022/01/25 07:45:21;;;;;;;76.40;48.33;;;3.80;99.90;;;;;;5089757;28;20048;-79
2022/01/25 07:47:46;;;;;;;75.28;47.63;;;3.70;99.90;;;;;;5089083;28;20071;-81
2022/01/25 07:50:12;;;;;;;76.30;48.25;;;3.80;99.90;;;;;;5071696;28;20482;-81
2022/01/25 07:52:38;;;;;;;72.47;45.30;;;3.80;99.90;;;;;;5071711;28;20047;-84
2022/01/25 07:55:04;;;;;;;72.45;46.75;;;3.70;99.90;;;;;;5070834;28;20059;-83
2022/01/25 07:57:30;;;;;;;74.57;47.50;;;3.80;99.90;;;;;;5071627;28;20136;-80
2022/01/25 07:59:57;;;;;;;78.30;46.83;;;3.70;99.90;;;;;;5089579;28;20075;-81
2022/01/25 08:02:23;;;;;;;65.45;41.20;;;3.80;99.90;;;;;;5089567;28;20044;-81
2022/01/25 08:04:48;;;;;;;82.53;50.17;;;3.80;99.90;;;;;;5071176;28;20606;-80
2022/01/25 08:07:14;;;;;;;69.43;43.80;;;3.70;99.90;;;;;;5089765;28;20048;-80
2022/01/25 08:09:40;;;;;;;81.85;51.55;;;3.70;99.90;;;;;;5092091;28;20405;-80
2022/01/25 08:12:05;;;;;;;77.50;44.83;;;3.80;99.90;;;;;;5088875;28;20047;-75
2022/01/25 08:14:31;;;;;;;74.03;45.88;;;3.80;99.90;;;;;;5088903;28;20040;-82
2022/01/25 08:16:57;;;;;;;80.00;48.08;;;3.70;99.90;;;;;;5072448;28;20048;-84
2022/01/25 08:19:23;;;;;;;76.25;47.80;;;3.80;99.90;;;;;;5090861;28;20059;-85
2022/01/25 08:21:49;;;;;;;76.30;46.92;;;3.80;99.90;;;;;;5071418;28;20087;-82
2022/01/25 08:24:18;;;;;;;71.80;49.08;;;3.70;99.90;;;;;;5088385;28;20066;-81
2022/01/25 08:26:44;;;;;;;67.90;44.33;;;3.80;99.90;;;;;;5088733;28;20635;-79
2022/01/25 08:29:10;;;;;;;72.57;47.08;;;3.80;99.90;;;;;;5089598;28;20040;-81
2022/01/25 08:31:38;;;;;;;76.95;48.45;;;3.70;99.90;;;;;;5089296;28;20509;-82
2022/01/25 08:34:05;;;;;;;77.88;49.35;;;3.80;99.90;;;;;;5082224;28;20098;-80
2022/01/25 08:36:30;;;;;;;83.57;50.35;;;4.00;99.90;;;;;;5089089;28;20036;-79
2022/01/25 08:38:56;;;;;;;74.82;44.60;;;3.90;99.90;;;;;;5087863;28;20036;-79
2022/01/25 08:41:22;;;;;;;85.60;49.58;;;3.90;99.90;;;;;;5106119;27;20054;-81
2022/01/25 08:43:48;;;;;;;76.45;46.15;;;3.90;99.90;;;;;;5097444;28;20036;-82
2022/01/25 08:46:15;;;;;;;76.72;49.40;;;3.90;99.90;;;;;;5088790;28;20048;-81
2022/01/25 08:48:41;;;;;;;73.68;47.65;;;3.90;99.90;;;;;;5070621;28;20044;-81
2022/01/25 08:51:07;;;;;;;73.18;45.65;;;3.90;99.90;;;;;;5070784;28;20067;-82
2022/01/25 08:53:33;;;;;;;72.88;46.83;;;3.90;99.90;;;;;;5071856;28;20036;-82
2022/01/25 08:55:58;;;;;;;77.50;49.28;;;3.90;99.90;;;;;;5088270;28;20391;-82
2022/01/25 08:58:24;;;;;;;67.78;43.05;;;3.90;99.90;;;;;;5109313;28;20135;-82
2022/01/25 09:00:50;;;;;;;74.10;45.05;;;3.90;99.90;;;;;;5091717;28;20051;-83
2022/01/25 09:03:15;;;;;;;74.07;49.00;;;3.80;99.90;;;;;;5100336;28;20046;-84
2022/01/25 09:05:41;;;;;;;66.00;45.67;;;3.90;99.90;;;;;;5109127;28;20105;-83
2022/01/25 09:08:07;;;;;;;76.95;43.47;;;3.80;99.90;;;;;;5098048;28;20428;-82
2022/01/25 09:10:34;;;;;;;68.82;44.83;;;3.90;99.90;;;;;;5089679;28;20035;-81
2022/01/25 09:13:00;;;;;;;72.20;46.50;;;3.80;99.90;;;;;;5089347;28;20044;-80
2022/01/25 09:15:26;;;;;;;71.50;45.30;;;3.90;99.90;;;;;;5088841;28;20119;-80
2022/01/25 09:17:52;;;;;;;80.80;45.28;;;3.90;99.90;;;;;;5088318;28;20055;-80
2022/01/25 09:20:19;;;;;;;69.93;45.83;;;3.80;99.90;;;;;;5088535;28;20048;-80
2022/01/25 09:22:45;;;;;;;75.10;47.25;;;3.90;99.90;;;;;;5089472;28;20036;-81
2022/01/25 09:25:12;;;;;;;67.00;42.50;;;3.90;99.90;;;;;;5088080;28;20047;-83
2022/01/25 09:27:38;;;;;;;74.45;47.55;;;3.90;99.90;;;;;;5054284;28;20158;-82
2022/01/25 09:30:05;;;;;;;73.85;47.40;;;3.90;99.90;;;;;;5088996;28;20567;-81
2022/01/25 09:32:31;;;;;;;77.40;48.92;;;4.00;99.90;;;;;;5076934;28;20402;-83
2022/01/25 09:34:56;;;;;;;79.47;49.10;;;4.00;99.90;;;;;;5089470;28;20047;-83
2022/01/25 09:37:22;;;;;;;72.35;46.50;;;4.00;99.90;;;;;;5077775;28;20040;-82
2022/01/25 09:39:47;;;;;;;77.22;51.05;;;4.10;99.90;;;;;;5081628;28;20101;-82
2022/01/25 09:42:13;;;;;;;76.43;48.53;;;4.00;99.90;;;;;;5097153;28;20101;-80
2022/01/25 09:44:40;;;;;;;76.05;49.00;;;4.00;99.90;;;;;;5077734;28;20456;-82
2022/01/25 09:47:07;;;;;;;79.55;46.42;;;4.00;99.90;;;;;;5089705;28;20055;-80
2022/01/25 09:49:34;;;;;;;76.82;47.53;;;4.00;99.90;;;;;;5078130;28;20066;-82
2022/01/25 09:52:03;;;;;;;73.35;44.78;;;4.00;99.90;;;;;;5097859;28;20101;-81
2022/01/25 09:54:31;;;;;;;74.85;42.67;;;4.10;99.90;;;;;;5083182;28;20119;-80
2022/01/25 09:56:57;;;;;;;82.20;47.70;;;4.00;99.90;;;;;;5078986;28;20440;-79
2022/01/25 09:59:23;;;;;;;73.03;46.90;;;4.00;99.90;;;;;;5073705;28;20043;-80
2022/01/25 10:01:49;;;;;;;74.80;47.15;;;4.00;99.90;;;;;;5073621;28;20588;-81
2022/01/25 10:04:38;;;;;;;78.63;46.58;;;4.10;99.90;;;;;;5091865;28;20103;-79
2022/01/25 10:07:04;;;;;;;82.15;48.03;;;4.10;99.90;;;;;;5100961;28;20501;-79
2022/01/25 10:09:33;;;;;;;72.75;45.83;;;4.10;99.90;;;;;;5080317;28;20055;-76
2022/01/25 10:12:20;;;;;;;77.10;48.20;;;4.10;99.90;;;;;;5090803;28;20051;-82
2022/01/25 10:15:01;;;;;;;73.75;44.72;;;4.10;99.90;;;;;;5056686;28;20040;-79
2022/01/25 10:17:34;;;;;;;80.57;48.85;;;4.10;99.90;;;;;;5073670;28;20048;-83
2022/01/25 10:20:01;;;;;;;80.32;48.45;;;4.20;99.90;;;;;;5091521;28;20162;-77
2022/01/25 10:22:27;;;;;;;71.60;46.78;;;4.20;99.90;;;;;;5091604;28;20039;-76
2022/01/25 10:24:52;;;;;;;75.88;46.90;;;4.10;99.90;;;;;;5071679;28;20043;-77
2022/01/25 10:28:03;;;;;;;71.97;44.50;;;4.10;99.90;;;;;;5073169;28;20404;-76
2022/01/25 10:30:10;;;;;;;76.68;48.72;;;4.10;99.90;;;;;;5061511;28;20221;-76
2022/01/25 10:32:39;;;;;;;71.72;45.90;;;4.10;99.90;;;;;;5092965;28;20043;-76
2022/01/25 10:35:13;;;;;;;79.93;48.20;;;4.10;99.90;;;;;;5105853;28;20082;-79
2022/01/25 10:37:41;;;;;;;74.63;46.47;;;4.10;99.90;;;;;;5091810;28;20123;-77
2022/01/25 10:40:08;;;;;;;79.80;48.13;;;4.10;99.90;;;;;;5089619;28;20089;-77
2022/01/25 10:42:35;;;;;;;75.03;45.33;;;4.20;99.90;;;;;;5090978;28;20051;-76
2022/01/25 10:45:03;;;;;;;78.70;49.28;;;4.10;99.90;;;;;;5084993;28;20044;-76
2022/01/25 10:47:52;;;;;;;79.60;46.75;;;4.10;99.90;;;;;;5072740;28;20084;-80
2022/01/25 10:50:26;;;;;;;73.45;46.00;;;4.20;99.90;;;;;;5092674;28;20054;-87
2022/01/25 10:53:08;;;;;;;76.07;46.03;;;4.20;99.90;;;;;;5113891;28;20478;-80
2022/01/25 10:55:39;;;;;;;75.68;46.60;;;4.10;99.90;;;;;;5086302;28;20047;-79
2022/01/25 10:58:05;;;;;;;77.22;48.17;;;4.20;99.90;;;;;;5090526;28;20040;-80
2022/01/25 11:00:33;;;;;;;71.63;44.95;;;4.20;99.90;;;;;;5090917;28;20390;-79
2022/01/25 11:02:59;;;;;;;79.30;49.38;;;4.10;99.90;;;;;;5076020;28;20052;-82
2022/01/25 11:05:25;;;;;;;73.65;46.38;;;4.10;99.90;;;;;;5075532;28;20046;-84
2022/01/25 11:07:51;;;;;;;76.15;45.15;;;4.10;99.90;;;;;;5091280;28;20044;-81
2022/01/25 11:10:20;;;;;;;79.55;47.40;;;4.10;99.90;;;;;;5090809;28;20086;-81
2022/01/25 11:13:01;;;;;;;76.78;45.47;;;4.20;99.90;;;;;;5090454;28;20443;-81
2022/01/25 11:15:26;;;;;;;83.13;51.13;;;4.20;99.90;;;;;;5090995;28;20054;-81
2022/01/25 11:17:52;;;;;;;81.60;48.88;;;4.20;99.90;;;;;;5090931;28;20043;-81
2022/01/25 11:20:18;;;;;;;75.10;46.40;;;4.30;99.90;;;;;;5090207;28;20040;-82
2022/01/25 11:22:45;;;;;;;75.03;44.88;;;4.20;99.90;;;;;;5098623;28;20497;-78
2022/01/25 11:25:13;;;;;;;81.05;50.38;;;4.20;99.90;;;;;;5104843;28;20510;-82
2022/01/25 11:27:41;;;;;;;82.10;48.80;;;4.20;99.90;;;;;;5072402;28;20044;-81
2022/01/25 11:30:12;;;;;;;72.53;46.20;;;4.20;99.90;;;;;;5090130;28;20490;-82
2022/01/25 11:32:44;;;;;;;72.18;44.15;;;4.30;99.90;;;;;;5090232;28;20119;-79
2022/01/25 11:35:14;;;;;;;73.57;46.97;;;4.20;99.90;;;;;;5090090;28;20032;-79
2022/01/25 11:37:43;;;;;;;72.20;44.17;;;4.20;99.90;;;;;;5063642;28;20383;-81
2022/01/25 11:40:28;;;;;;;81.88;52.65;;;4.20;99.90;;;;;;5069400;28;20491;-78
2022/01/25 11:42:57;;;;;;;79.47;47.95;;;4.20;99.90;;;;;;5092033;28;20115;-80
2022/01/25 11:45:26;;;;;;;79.68;49.10;;;4.20;99.90;;;;;;5059521;28;20071;-79
2022/01/25 11:47:53;;;;;;;75.22;44.65;;;4.20;99.90;;;;;;5094904;28;20049;-78
2022/01/25 11:50:24;;;;;;;75.70;45.67;;;4.20;99.90;;;;;;5100382;28;20044;-77
2022/01/25 11:52:51;;;;;;;;;;;4.30;99.90;;;;;;5065149;28;20086;-84
2022/01/25 11:55:30;;;;;;;81.88;47.95;;;4.20;99.90;;;;;;5087917;28;19999;-82
2022/01/25 11:57:58;;;;;;;83.90;51.75;;;4.20;99.90;;;;;;5089639;28;20078;-84
2022/01/25 12:00:47;;;;;;;80.13;47.80;;;4.20;99.90;;;;;;5089871;28;20646;-82
2022/01/25 12:03:32;;;;;;;71.70;46.03;;;4.20;99.90;;;;;;5089729;28;20040;-82
2022/01/25 12:06:00;;;;;;;79.22;47.13;;;4.20;99.90;;;;;;5090189;28;20085;-84
2022/01/25 12:08:39;;;;;;;75.53;49.13;;;4.30;99.90;;;;;;5111091;28;20046;-81
2022/01/25 12:11:23;;;;;;;76.30;46.42;;;4.30;99.90;;;;;;5087701;28;20104;-82
2022/01/25 12:14:23;;;;;;;76.85;48.40;;;4.20;99.90;;;;;;5070853;28;20044;-81
2022/01/25 12:17:02;;;;;;;71.15;43.85;;;4.20;99.90;;;;;;5089985;28;20046;-83
2022/01/25 12:19:45;;;;;;;75.53;45.85;;;4.10;99.90;;;;;;5091740;28;20050;-81
2022/01/25 12:22:27;;;;;;;77.35;45.83;;;4.20;99.90;;;;;;5098202;28;20078;-82
2022/01/25 12:25:07;;;;;;;102.57;48.42;;;4.10;99.90;;;;;;5100304;28;20050;-83
2022/01/25 12:27:57;;;;;;;83.38;50.40;;;4.20;99.90;;;;;;5089672;28;20059;-82
2022/01/25 12:30:25;;;;;;;81.18;49.97;;;4.30;99.90;;;;;;5090370;28;20513;-83
2022/01/25 12:33:08;;;;;;;79.57;48.78;;;4.20;99.90;;;;;;5098658;28;20494;-82
2022/01/25 12:35:49;;;;;;;84.13;50.35;;;4.20;99.90;;;;;;5089209;28;20082;-81
2022/01/25 12:38:23;;;;;;;82.75;48.53;;;4.30;99.90;;;;;;5093808;28;20040;-82
2022/01/25 12:41:18;;;;;;;78.05;48.72;;;4.30;99.90;;;;;;5077562;28;20098;-81
2022/01/25 12:43:50;;;;;;;77.47;48.25;;;4.30;99.90;;;;;;5082347;28;20044;-82
2022/01/25 12:46:40;;;;;;;81.60;48.17;;;4.30;99.90;;;;;;5072890;28;20060;-82
2022/01/25 12:49:13;;;;;;;78.70;48.63;;;4.30;99.90;;;;;;5085972;28;20056;-83
2022/01/25 12:51:41;;;;;;;82.20;45.90;;;4.30;99.90;;;;;;5068338;28;20034;-83
2022/01/25 12:54:10;;;;;;;81.07;48.85;;;4.20;99.90;;;;;;5088017;28;20058;-82
2022/01/25 12:56:41;;;;;;;81.40;48.90;;;4.20;99.90;;;;;;5090025;28;20444;-84
2022/01/25 12:59:19;;;;;;;81.25;49.28;;;4.30;99.90;;;;;;5074670;28;20514;-82
2022/01/25 13:01:45;;;;;;;73.32;45.67;;;4.30;99.90;;;;;;5089773;28;20372;-86
2022/01/25 13:04:12;;;;;;;82.32;47.53;;;4.30;99.90;;;;;;5091048;28;20077;-82
2022/01/25 13:06:41;;;;;;;72.82;48.42;;;4.20;99.90;;;;;;5092425;28;20044;-86
2022/01/25 13:09:26;;;;;;;88.00;47.10;;;4.20;99.90;;;;;;5092676;28;20375;-87
2022/01/25 13:12:27;;;;;;;77.50;48.47;;;4.20;99.90;;;;;;5114888;28;20039;-86
2022/01/25 13:15:04;;;;;;;103.65;47.78;;;4.30;99.90;;;;;;5075274;28;20119;-87
2022/01/25 13:17:31;;;;;;;73.55;47.05;;;4.30;99.90;;;;;;5112887;28;20097;-90
2022/01/25 13:20:01;;;;;;;76.00;44.67;;;4.30;99.90;;;;;;5111761;28;20375;-89
2022/01/25 13:22:39;;;;;;;72.63;47.83;;;4.20;99.90;;;;;;5095558;28;20047;-89
2022/01/25 13:27:45;;;;;;;72.75;45.22;;;4.20;99.90;;;;;;5114569;28;20051;-90
2022/01/25 13:32:56;;;;;;;84.22;46.80;;;4.20;99.90;;;;;;5099641;28;20047;-83
2022/01/25 13:35:29;;;;;;;74.53;45.63;;;4.20;99.90;;;;;;5094655;28;20054;-89
2022/01/25 13:38:13;;;;;;;72.82;44.55;;;4.20;99.90;;;;;;5106312;28;20471;-90
2022/01/25 13:45:53;;;;;;;75.20;46.17;;;4.20;99.90;;;;;;5097423;28;20128;-91
2022/01/25 13:48:21;;;;;;;81.45;46.67;;;4.30;99.90;;;;;;5077159;28;20127;-89
2022/01/25 13:50:51;;;;;;;70.78;43.35;;;4.20;99.90;;;;;;5076384;28;20036;-90
2022/01/25 13:53:18;;;;;;;66.45;43.00;;;4.30;99.90;;;;;;5104789;28;20046;-91
2022/01/25 13:55:49;;;;;;;87.47;46.58;;;4.20;99.90;;;;;;5098378;28;20036;-91
2022/01/25 13:58:36;;;;;;;74.32;44.15;;;4.20;99.90;;;;;;5090329;28;20079;-84
2022/01/25 14:01:05;;;;;;;76.45;47.63;;;4.30;99.90;;;;;;5098993;28;20031;-90
2022/01/25 14:03:41;;;;;;;84.60;49.13;;;4.30;99.90;;;;;;5109917;28;20077;-87
2022/01/25 14:06:27;;;;;;;76.63;48.58;;;4.20;99.90;;;;;;5111757;28;20036;-91
2022/01/25 14:09:02;;;;;;;87.82;46.13;;;4.20;99.90;;;;;;5103726;28;20046;-91
2022/01/25 14:25:31;;;;;;;81.45;47.45;;;4.30;99.90;;;;;;5093536;28;20040;-83
2022/01/25 14:27:59;;;;;;;103.10;53.60;;;4.20;99.90;;;;;;5111271;28;20446;-81
2022/01/25 14:30:34;;;;;;;82.53;47.78;;;4.10;99.90;;;;;;5073647;28;20048;-80
2022/01/25 14:33:04;;;;;;;87.78;52.17;;;4.20;99.90;;;;;;5091183;28;20487;-80
2022/01/25 14:35:33;;;;;;;95.65;55.20;;;4.10;99.90;;;;;;5090868;28;20119;-81
2022/01/25 14:38:00;;;;;;;91.15;52.97;;;4.10;99.90;;;;;;5072008;28;20051;-81
2022/01/25 14:40:25;;;;;;;84.80;52.55;;;4.10;99.90;;;;;;5072236;28;20040;-81
2022/01/25 14:42:51;;;;;;;88.57;55.10;;;4.10;99.90;;;;;;5072783;28;20051;-80
2022/01/25 14:45:22;;;;;;;81.65;48.88;;;4.10;99.90;;;;;;5073338;28;20032;-81
2022/01/25 14:47:53;;;;;;;95.70;51.22;;;4.10;99.90;;;;;;5091206;28;20056;-81
2022/01/25 14:50:25;;;;;;;92.88;49.28;;;4.20;99.90;;;;;;5091955;28;20136;-82
2022/01/25 14:53:06;;;;;;;85.63;51.28;;;4.00;99.90;;;;;;5079070;28;20036;-82